Time;durP1;ratioP1;P1;durP2;ratioP2;P2;SDS_P1;SDS_P2;PMS_P1;PMS_P2;Temp;Humidity;BMP_temperature;BMP_pressure;BME280_temperature;BME280_humidity;BME280_pressure;Samples;Min_cycle;Max_cycle;Signal;HPM_P1;HPM_P2
2021/01/24 00:04:42;;;;;;;27.57;14.97;;;;;;;6.65;63.10;97085.91;259705;1108;114871;-77
2021/01/24 00:09:44;;;;;;;27.53;15.43;;;;;;;6.67;64.43;97081.35;259725;1109;114971;-75
2021/01/24 00:14:52;;;;;;;28.83;14.78;;;;;;;6.61;63.54;97079.18;259750;1108;115134;-75
2021/01/24 00:19:59;;;;;;;27.60;16.30;;;;;;;6.55;63.76;97055.87;259691;1108;115042;-71
2021/01/24 00:25:07;;;;;;;28.27;14.57;;;;;;;6.53;63.25;97055.16;259705;1109;115818;-73
2021/01/24 00:30:14;;;;;;;27.80;15.43;;;;;;;6.52;63.61;97032.31;259682;1109;114816;-73
2021/01/24 00:35:19;;;;;;;31.10;15.60;;;;;;;6.51;63.80;97028.84;259655;1108;115253;-75
2021/01/24 00:40:30;;;;;;;26.95;15.20;;;;;;;6.49;63.38;97028.14;259714;1108;114990;-75
2021/01/24 00:45:33;;;;;;;26.93;14.75;;;;;;;6.45;64.11;97031.12;259746;1106;114793;-72
2021/01/24 00:50:38;;;;;;;29.93;15.80;;;;;;;6.39;63.60;97016.60;259715;1108;115198;-73
2021/01/24 00:55:45;;;;;;;33.10;16.27;;;;;;;6.38;63.85;97004.33;259646;1109;115227;-71
2021/01/24 01:00:48;;;;;;;32.03;17.83;;;;;;;6.39;63.52;97011.32;257985;1109;115929;-72
2021/01/24 01:05:50;;;;;;;30.05;16.32;;;;;;;6.35;63.26;97013.36;259607;1108;115621;-72
2021/01/24 01:10:52;;;;;;;31.30;15.50;;;;;;;6.29;63.87;97016.47;259588;1109;116133;-71
2021/01/24 01:15:54;;;;;;;34.63;17.37;;;;;;;6.24;63.52;97008.05;259732;1107;114872;-73
2021/01/24 01:20:57;;;;;;;35.78;19.02;;;;;;;6.12;63.15;96998.45;259729;1108;115215;-74
2021/01/24 01:25:59;;;;;;;35.57;19.30;;;;;;;6.02;64.18;96986.91;259673;1109;114957;-72
2021/01/24 01:31:02;;;;;;;36.73;18.70;;;;;;;5.92;63.36;96992.02;259756;1107;114900;-70
2021/01/24 01:36:05;;;;;;;35.23;19.33;;;;;;;5.82;63.56;96988.39;259744;1108;115522;-70
2021/01/24 01:41:09;;;;;;;42.67;22.93;;;;;;;5.77;63.69;97003.72;259757;1108;114793;-70
2021/01/24 01:46:19;;;;;;;43.60;23.37;;;;;;;5.74;64.14;97010.09;259339;1108;115043;-72
2021/01/24 01:51:21;;;;;;;42.03;23.80;;;;;;;5.69;64.06;97012.22;259680;1109;114905;-70
2021/01/24 01:56:27;;;;;;;53.68;27.62;;;;;;;5.64;63.73;97014.38;258394;1105;115609;-72
2021/01/24 02:01:44;;;;;;;47.63;26.97;;;;;;;5.65;64.23;97008.13;259762;1105;115063;-70
2021/01/24 02:06:52;;;;;;;47.83;26.03;;;;;;;5.72;64.21;96987.41;259732;1109;115084;-72
2021/01/24 02:12:09;;;;;;;48.47;27.37;;;;;;;5.77;64.43;96983.44;259728;1108;115270;-74
2021/01/24 02:17:25;;;;;;;49.70;28.13;;;;;;;5.80;65.66;96987.66;258430;1109;115245;-72
2021/01/24 02:22:35;;;;;;;52.93;28.57;;;;;;;5.81;65.80;96984.05;259632;1109;114896;-71
2021/01/24 02:27:56;;;;;;;46.93;27.13;;;;;;;5.78;64.85;96986.95;259694;1109;115242;-71
2021/01/24 02:33:23;;;;;;;51.27;27.97;;;;;;;5.76;64.67;96978.29;259735;1108;115238;-71
2021/01/24 02:38:28;;;;;;;50.67;28.10;;;;;;;5.73;65.54;96979.36;259708;1109;115585;-73
2021/01/24 02:43:48;;;;;;;52.37;29.53;;;;;;;5.68;65.16;96965.69;259651;1109;115251;-74
2021/01/24 02:49:01;;;;;;;53.57;30.13;;;;;;;5.63;65.43;96973.92;259421;1109;116196;-74
2021/01/24 02:54:07;;;;;;;51.97;30.57;;;;;;;5.59;64.82;96974.28;258616;1108;114873;-75
2021/01/24 02:59:15;;;;;;;57.13;32.53;;;;;;;5.60;65.71;96970.68;259705;1109;115603;-76
2021/01/24 03:04:17;;;;;;;61.20;33.27;;;;;;;5.68;65.26;96968.33;259747;1105;115301;-75
2021/01/24 03:09:20;;;;;;;57.20;33.43;;;;;;;5.74;65.75;96959.08;259652;1108;115056;-75
2021/01/24 03:14:25;;;;;;;60.60;32.70;;;;;;;5.75;66.18;96958.98;259746;1109;115132;-77
2021/01/24 03:19:31;;;;;;;65.67;35.20;;;;;;;5.74;64.78;96954.67;259737;1109;116341;-76
2021/01/24 03:24:34;;;;;;;63.93;34.57;;;;;;;5.73;65.70;96941.58;259718;1109;114731;-79
2021/01/24 03:29:36;;;;;;;63.77;35.33;;;;;;;5.71;65.89;96946.98;259703;1108;114894;-78
2021/01/24 03:34:39;;;;;;;65.87;35.70;;;;;;;5.64;64.87;96940.49;259743;1107;115027;-77
2021/01/24 03:39:41;;;;;;;62.78;35.03;;;;;;;5.57;65.00;96913.73;259785;1109;114820;-74
2021/01/24 03:44:43;;;;;;;59.27;34.17;;;;;;;5.50;65.37;96907.21;259731;1109;114914;-73
2021/01/24 03:49:46;;;;;;;50.40;30.40;;;;;;;5.45;65.13;96923.40;259717;1109;114881;-72
2021/01/24 03:54:48;;;;;;;53.07;30.13;;;;;;;5.40;65.84;96915.01;259720;1105;114878;-70
2021/01/24 03:59:53;;;;;;;61.20;31.73;;;;;;;5.38;65.79;96902.89;259678;1105;114931;-69
2021/01/24 04:04:56;;;;;;;57.17;31.62;;;;;;;5.38;65.86;96901.08;259640;1109;114900;-71
2021/01/24 04:09:58;;;;;;;56.13;30.77;;;;;;;5.43;65.12;96898.95;259777;1105;115212;-67
2021/01/24 04:15:01;;;;;;;59.67;30.85;;;;;;;5.48;66.09;96901.23;259611;1109;115006;-68
2021/01/24 04:20:05;;;;;;;58.00;31.10;;;;;;;5.46;65.86;96888.14;259706;1109;114834;-69
2021/01/24 04:25:08;;;;;;;52.97;29.77;;;;;;;5.44;65.84;96887.44;259234;1106;114982;-68
2021/01/24 04:30:11;;;;;;;55.23;31.77;;;;;;;5.40;65.44;96880.72;259765;1108;114784;-66
2021/01/24 04:35:14;;;;;;;54.13;29.70;;;;;;;5.38;66.08;96866.80;259794;1106;115041;-67
2021/01/24 04:40:17;;;;;;;52.90;28.90;;;;;;;5.34;66.01;96860.08;259813;1105;114835;-72
2021/01/24 04:45:19;;;;;;;50.87;28.37;;;;;;;5.30;65.92;96856.00;259717;1108;114839;-72
2021/01/24 04:50:22;;;;;;;54.45;28.38;;;;;;;5.27;65.12;96852.77;259707;1109;115647;-68
2021/01/24 04:55:25;;;;;;;55.63;30.12;;;;;;;5.23;66.18;96852.16;259720;1108;115086;-66
2021/01/24 05:00:28;;;;;;;54.00;28.43;;;;;;;5.26;65.39;96846.62;259749;1108;114837;-68
2021/01/24 05:05:31;;;;;;;53.53;28.30;;;;;;;5.31;65.62;96844.48;259756;1109;115764;-70
2021/01/24 05:10:33;;;;;;;45.50;27.10;;;;;;;5.34;65.37;96827.59;259726;1105;114999;-69
2021/01/24 05:15:35;;;;;;;50.20;26.47;;;;;;;5.36;65.81;96828.30;259714;1109;114958;-68
2021/01/24 05:20:43;;;;;;;50.23;26.95;;;;;;;5.35;65.41;96858.28;259731;1108;115650;-71
2021/01/24 05:25:45;;;;;;;47.60;25.10;;;;;;;5.31;65.68;96860.31;259769;1109;114900;-71
2021/01/24 05:30:49;;;;;;;44.83;25.02;;;;;;;5.29;66.41;96842.91;259747;1105;114835;-72
2021/01/24 05:35:52;;;;;;;45.90;25.87;;;;;;;5.24;66.40;96843.28;259719;1108;115207;-71
2021/01/24 05:41:04;;;;;;;42.17;24.67;;;;;;;5.18;66.22;96844.57;259767;1105;115125;-72
2021/01/24 05:46:08;;;;;;;39.67;23.67;;;;;;;5.14;65.59;96856.31;259708;1109;114863;-68
2021/01/24 05:51:13;;;;;;;46.47;25.93;;;;;;;5.13;66.39;96836.19;259741;1108;115131;-67
2021/01/24 05:56:20;;;;;;;50.92;26.45;;;;;;;5.17;66.05;96824.44;259804;1109;115403;-68
2021/01/24 06:01:24;;;;;;;51.90;28.10;;;;;;;5.21;65.58;96815.34;259712;1109;115202;-70
2021/01/24 06:06:27;;;;;;;49.30;27.42;;;;;;;5.23;66.56;96815.23;259686;1108;115319;-71
2021/01/24 06:11:31;;;;;;;49.25;27.77;;;;;;;5.23;65.52;96815.23;259737;1105;115038;-72
2021/01/24 06:16:39;;;;;;;45.17;26.65;;;;;;;5.20;65.58;96816.30;259759;1108;114987;-68
2021/01/24 06:21:50;;;;;;;45.97;25.57;;;;;;;5.12;66.25;96829.20;259768;1105;115058;-68
2021/01/24 06:26:57;;;;;;;48.53;26.17;;;;;;;5.06;65.53;96810.38;259719;1108;115094;-71
2021/01/24 06:32:00;;;;;;;46.53;26.00;;;;;;;4.98;66.24;96808.33;259591;1108;115553;-68
2021/01/24 06:37:07;;;;;;;46.45;24.57;;;;;;;4.91;66.40;96810.59;259788;1109;116194;-74
2021/01/24 06:42:10;;;;;;;41.37;24.03;;;;;;;4.87;66.52;96822.31;259707;1106;114924;-69
2021/01/24 06:47:40;;;;;;;46.60;24.90;;;;;;;4.87;65.78;96808.31;259725;1107;115079;-68
2021/01/24 06:53:02;;;;;;;36.77;21.30;;;;;;;4.90;66.35;96811.55;259706;1108;115008;-69
2021/01/24 06:58:36;;;;;;;38.50;21.80;;;;;;;4.94;67.01;96815.63;259776;1109;115006;-68
2021/01/24 07:03:40;;;;;;;34.78;20.88;;;;;;;4.99;66.08;96825.81;259766;1105;115225;-74
2021/01/24 07:08:42;;;;;;;33.33;19.37;;;;;;;5.00;66.80;96821.41;259737;1105;115029;-67
2021/01/24 07:13:45;;;;;;;33.13;19.43;;;;;;;4.98;66.70;96821.51;259679;1106;114761;-68
2021/01/24 07:18:48;;;;;;;34.30;19.57;;;;;;;4.97;65.86;96828.58;259761;1105;115318;-68
2021/01/24 07:23:50;;;;;;;32.50;18.37;;;;;;;4.97;66.22;96827.74;259765;1108;116171;-69
2021/01/24 07:28:53;;;;;;;32.17;19.20;;;;;;;4.97;66.17;96818.03;259778;1109;115419;-67
2021/01/24 07:33:56;;;;;;;29.77;19.17;;;;;;;4.98;67.13;96811.80;259764;1105;114923;-68
2021/01/24 07:38:59;;;;;;;29.37;17.73;;;;;;;4.96;67.16;96803.19;259803;1105;114942;-69
2021/01/24 07:44:02;;;;;;;31.73;19.43;;;;;;;5.00;66.08;96808.23;259709;1105;115041;-70
2021/01/24 07:49:04;;;;;;;33.20;19.20;;;;;;;5.06;66.66;96799.83;259772;1109;115569;-67
2021/01/24 07:54:06;;;;;;;33.67;19.92;;;;;;;5.15;67.41;96802.61;259740;1108;115354;-67
2021/01/24 07:59:09;;;;;;;31.10;18.87;;;;;;;5.25;66.24;96813.30;259712;1109;115303;-67
2021/01/24 08:04:12;;;;;;;31.33;19.07;;;;;;;5.30;67.48;96819.08;259729;1109;115456;-67
2021/01/24 08:09:15;;;;;;;32.23;19.43;;;;;;;5.35;66.58;96824.00;259748;1109;114890;-70
2021/01/24 08:14:18;;;;;;;32.35;18.95;;;;;;;5.36;67.01;96792.22;259695;1105;114901;-68
2021/01/24 08:19:23;;;;;;;29.60;17.70;;;;;;;5.39;66.62;96835.98;259690;1108;115158;-67
2021/01/24 08:24:26;;;;;;;30.00;17.47;;;;;;;5.36;66.16;96852.87;259714;1109;115844;-67
2021/01/24 08:29:34;;;;;;;30.97;18.30;;;;;;;5.36;66.28;96850.23;259759;1106;114968;-67
2021/01/24 08:34:37;;;;;;;30.47;18.73;;;;;;;5.34;66.03;96860.08;259727;1105;114922;-66
2021/01/24 08:39:39;;;;;;;32.90;19.50;;;;;;;5.36;67.08;96881.89;259708;1105;115611;-65
2021/01/24 08:45:05;;;;;;;31.80;18.85;;;;;;;5.42;66.46;96891.14;259766;1105;115079;-64
2021/01/24 08:50:10;;;;;;;29.17;18.97;;;;;;;5.46;66.04;96895.22;259688;1106;114938;-68
2021/01/24 08:55:13;;;;;;;36.47;19.70;;;;;;;5.46;66.42;96885.50;259747;1109;116903;-67
2021/01/24 09:00:17;;;;;;;35.03;20.47;;;;;;;5.46;66.47;96885.50;259715;1106;115054;-67
2021/01/24 09:05:30;;;;;;;36.00;20.43;;;;;;;5.42;66.97;96875.31;259740;1108;115119;-66
2021/01/24 09:10:33;;;;;;;36.63;22.05;;;;;;;5.39;67.01;96875.55;259741;1108;115343;-67
2021/01/24 09:15:35;;;;;;;35.80;21.73;;;;;;;5.33;67.54;96866.33;259751;1108;115106;-68
2021/01/24 09:20:38;;;;;;;33.90;22.00;;;;;;;5.39;67.51;96872.91;259597;1105;115586;-67
2021/01/24 09:25:41;;;;;;;36.23;21.23;;;;;;;5.46;66.54;96890.78;259710;1108;115167;-68
2021/01/24 09:30:43;;;;;;;35.20;21.62;;;;;;;5.55;67.15;96894.53;259721;1109;115332;-62
2021/01/24 09:35:46;;;;;;;41.55;24.72;;;;;;;5.61;66.92;96901.98;259692;1105;115240;-63
2021/01/24 09:40:48;;;;;;;42.20;25.93;;;;;;;5.62;67.33;96902.81;259760;1106;114828;-62
2021/01/24 09:45:50;;;;;;;41.37;26.33;;;;;;;5.53;66.27;96906.15;259782;1107;114807;-61
2021/01/24 09:50:52;;;;;;;44.57;27.27;;;;;;;5.38;66.21;96905.52;259759;1108;115169;-61
2021/01/24 09:55:55;;;;;;;49.47;29.20;;;;;;;5.29;67.09;96906.20;259719;1109;115533;-62
2021/01/24 10:00:57;;;;;;;51.50;30.20;;;;;;;5.21;66.88;96912.89;259783;1105;114936;-62
2021/01/24 10:05:59;;;;;;;41.07;25.63;;;;;;;5.24;67.08;96908.36;259728;1106;115532;-62
2021/01/24 10:11:02;;;;;;;39.17;24.70;;;;;;;5.28;67.02;96929.11;259784;1108;175626;-61
2021/01/24 10:16:05;;;;;;;37.40;23.63;;;;;;;5.26;66.61;96930.16;259654;1105;115009;-62
2021/01/24 10:21:08;;;;;;;39.78;22.70;;;;;;;5.28;67.03;96925.62;259739;1108;114842;-62
2021/01/24 10:26:10;;;;;;;35.58;21.30;;;;;;;5.26;67.20;96936.27;259805;1105;115385;-62
2021/01/24 10:31:12;;;;;;;37.25;20.35;;;;;;;5.28;67.18;96938.81;259732;1108;116003;-61
2021/01/24 10:36:14;;;;;;;29.27;18.35;;;;;;;5.31;67.41;96935.95;259818;1109;115080;-61
2021/01/24 10:41:17;;;;;;;34.80;20.00;;;;;;;5.35;67.34;96946.14;259747;1108;114926;-61
2021/01/24 10:46:19;;;;;;;30.20;18.67;;;;;;;5.23;67.33;96949.72;259739;1105;115936;-62
2021/01/24 10:51:22;;;;;;;29.27;16.73;;;;;;;5.23;67.41;96949.72;259826;1106;115090;-62
2021/01/24 10:56:24;;;;;;;31.53;17.73;;;;;;;5.37;67.91;96964.52;259740;1109;115619;-61
2021/01/24 11:01:26;;;;;;;34.40;15.07;;;;;;;5.44;66.37;96955.18;259808;1105;115003;-62
2021/01/24 11:06:28;;;;;;;36.07;16.80;;;;;;;5.34;66.53;96952.39;259817;1105;114963;-65
2021/01/24 11:11:31;;;;;;;28.50;16.13;;;;;;;5.39;66.20;96963.42;259720;1108;115101;-61
2021/01/24 11:16:33;;;;;;;35.98;16.97;;;;;;;5.26;66.13;96967.92;259709;1109;115184;-64
2021/01/24 11:21:35;;;;;;;34.17;19.07;;;;;;;5.23;65.59;96989.27;259776;1108;114856;-63
2021/01/24 11:26:37;;;;;;;38.40;20.10;;;;;;;5.19;66.57;96993.89;259749;1108;115604;-65
2021/01/24 11:31:40;;;;;;;48.40;21.03;;;;;;;5.16;66.54;96995.92;259767;1108;114960;-63
2021/01/24 11:36:43;;;;;;;46.85;20.43;;;;;;;5.22;65.74;96984.92;259745;1104;116163;-62
2021/01/24 11:41:45;;;;;;;39.05;20.80;;;;;;;5.19;66.50;96983.34;259720;1109;115108;-65
2021/01/24 11:46:47;;;;;;;40.43;19.40;;;;;;;5.20;66.19;97002.67;259754;1107;115485;-74
2021/01/24 11:51:50;;;;;;;35.78;17.25;;;;;;;5.21;66.31;96991.16;259726;1109;115047;-67
2021/01/24 11:56:52;;;;;;;40.70;20.70;;;;;;;5.18;66.15;96996.66;259789;1105;115542;-67
2021/01/24 12:01:54;;;;;;;36.67;20.40;;;;;;;5.30;66.65;96995.77;259692;1108;114834;-66
2021/01/24 12:06:57;;;;;;;36.88;19.30;;;;;;;5.36;65.66;96997.09;259712;1108;115802;-66
2021/01/24 12:11:59;;;;;;;32.67;17.77;;;;;;;5.49;65.52;97015.50;259710;1108;115429;-66
2021/01/24 12:17:01;;;;;;;37.23;19.77;;;;;;;5.48;64.81;97016.47;259718;1105;117677;-67
2021/01/24 12:22:03;;;;;;;31.27;17.10;;;;;;;5.40;64.70;97024.92;259578;1109;115020;-66
2021/01/24 12:27:06;;;;;;;35.47;18.53;;;;;;;5.37;65.46;97020.73;259685;1109;114946;-66
2021/01/24 12:32:08;;;;;;;33.60;18.25;;;;;;;5.41;66.22;97027.46;259770;1106;114937;-67
2021/01/24 12:37:11;;;;;;;34.53;18.17;;;;;;;5.38;65.64;97026.84;259691;1108;114935;-68
2021/01/24 12:42:13;;;;;;;34.08;18.32;;;;;;;5.39;65.12;97039.91;259780;1105;115552;-68
2021/01/24 12:47:15;;;;;;;32.30;15.83;;;;;;;5.40;65.42;97031.06;259742;1108;114908;-66
2021/01/24 12:52:18;;;;;;;23.93;13.30;;;;;;;5.35;64.59;97040.26;259551;1105;115194;-69
2021/01/24 12:57:20;;;;;;;24.32;13.83;;;;;;;5.40;64.82;97030.19;259746;1108;114860;-68
2021/01/24 13:02:22;;;;;;;24.63;13.30;;;;;;;5.63;65.04;97039.05;259712;1106;116500;-69
2021/01/24 13:07:26;;;;;;;20.97;12.97;;;;;;;5.73;64.56;97024.22;259746;1109;115365;-72
2021/01/24 13:12:28;;;;;;;17.93;11.67;;;;;;;5.89;65.34;97026.56;259797;1105;114850;-67
2021/01/24 13:17:31;;;;;;;19.57;11.33;;;;;;;6.09;65.43;97025.92;259600;1105;114823;-68
2021/01/24 13:22:33;;;;;;;21.60;11.10;;;;;;;6.12;64.32;97035.41;259801;1105;115034;-68
2021/01/24 13:27:35;;;;;;;19.27;11.80;;;;;;;6.19;64.02;97028.70;259824;1104;114572;-68
2021/01/24 13:32:38;;;;;;;17.27;11.37;;;;;;;6.34;64.28;97043.36;259875;1103;114635;-68
2021/01/24 13:37:42;;;;;;;22.10;12.30;;;;;;;6.50;63.70;97064.16;259863;1105;115085;-69
2021/01/24 13:42:44;;;;;;;19.93;11.57;;;;;;;6.67;64.35;97062.85;259359;1105;114722;-68
2021/01/24 13:47:46;;;;;;;21.37;12.70;;;;;;;6.73;63.43;97085.33;256315;1105;114627;-72
2021/01/24 13:52:49;;;;;;;21.57;12.33;;;;;;;6.71;63.71;97092.53;258988;1105;114720;-70
2021/01/24 13:57:53;;;;;;;18.23;11.57;;;;;;;6.69;62.60;97087.38;259842;1105;114858;-72
2021/01/24 14:02:55;;;;;;;19.60;12.50;;;;;;;6.63;62.30;97098.42;259776;1105;114774;-66
2021/01/24 14:07:57;;;;;;;20.53;13.03;;;;;;;6.43;63.36;97086.73;259797;1105;114828;-68
2021/01/24 14:13:00;;;;;;;23.00;13.30;;;;;;;6.29;62.39;97094.88;258757;1107;115227;-69
2021/01/24 14:18:02;;;;;;;22.30;14.17;;;;;;;6.20;62.31;97101.69;259573;1103;114795;-67
2021/01/24 14:23:05;;;;;;;24.52;15.08;;;;;;;6.08;63.40;97111.38;259810;1105;114944;-66
2021/01/24 14:28:07;;;;;;;25.60;14.53;;;;;;;5.99;63.29;97113.87;259768;1105;114811;-66
2021/01/24 14:33:09;;;;;;;22.30;14.20;;;;;;;5.92;62.22;97111.67;259700;1108;114815;-66
2021/01/24 14:38:12;;;;;;;25.35;14.63;;;;;;;5.91;62.58;97127.61;259675;1108;115121;-67
2021/01/24 14:43:15;;;;;;;26.17;15.40;;;;;;;5.85;62.60;97122.78;259751;1105;114874;-66
2021/01/24 14:48:20;;;;;;;22.20;14.30;;;;;;;5.82;63.58;97131.75;259746;1108;115408;-66
2021/01/24 14:53:23;;;;;;;29.10;18.30;;;;;;;5.81;63.47;97135.36;259716;1105;115209;-68
2021/01/24 14:58:25;;;;;;;23.40;14.30;;;;;;;5.78;62.83;97148.78;259729;1105;115271;-66
2021/01/24 15:03:28;;;;;;;20.57;13.65;;;;;;;5.79;63.57;97154.89;259735;1106;116345;-66
2021/01/24 15:08:31;;;;;;;23.10;14.90;;;;;;;5.79;63.21;97157.53;258754;1106;115367;-65
2021/01/24 15:13:33;;;;;;;20.83;14.20;;;;;;;5.76;63.42;97169.15;259643;1109;115311;-68
2021/01/24 15:18:36;;;;;;;24.00;14.43;;;;;;;5.75;63.65;97170.11;259677;1106;114717;-68
2021/01/24 15:23:38;;;;;;;24.17;15.43;;;;;;;5.76;63.73;97182.34;259678;1107;115907;-68
2021/01/24 15:28:41;;;;;;;19.70;13.62;;;;;;;5.74;62.93;97192.19;259702;1109;115070;-67
2021/01/24 15:33:44;;;;;;;23.20;14.37;;;;;;;5.75;63.34;97204.42;259489;1105;115466;-69
2021/01/24 15:38:46;;;;;;;19.73;12.93;;;;;;;5.75;62.79;97222.06;259698;1106;114867;-69
2021/01/24 15:43:50;;;;;;;18.77;12.07;;;;;;;5.75;63.45;97211.50;259705;1108;115586;-69
2021/01/24 15:49:01;;;;;;;18.50;11.67;;;;;;;5.77;63.13;97214.86;259650;1109;115721;-69
2021/01/24 15:54:04;;;;;;;20.00;11.40;;;;;;;5.77;63.32;97214.86;259703;1105;115112;-69
2021/01/24 15:59:06;;;;;;;19.73;10.63;;;;;;;5.81;63.17;97225.10;259657;1109;114934;-69
2021/01/24 16:04:10;;;;;;;17.23;10.83;;;;;;;5.81;62.57;97225.10;259710;1108;115283;-69
2021/01/24 16:09:12;;;;;;;16.33;9.47;;;;;;;5.86;62.93;97220.31;259714;1105;115423;-69
2021/01/24 16:14:14;;;;;;;16.43;8.80;;;;;;;5.94;62.91;97243.55;259615;1105;115487;-69
2021/01/24 16:19:16;;;;;;;13.20;8.15;;;;;;;6.03;62.51;97234.97;259738;1108;115673;-69
2021/01/24 16:24:19;;;;;;;17.97;8.43;;;;;;;6.02;63.22;97228.02;259662;1105;115857;-68
2021/01/24 16:29:24;;;;;;;13.73;8.30;;;;;;;6.02;62.72;97213.97;259670;1108;115050;-68
2021/01/24 16:34:26;;;;;;;12.15;7.70;;;;;;;5.96;62.37;97217.89;259681;1108;115686;-68
2021/01/24 16:39:28;;;;;;;11.97;7.30;;;;;;;5.87;61.59;97214.08;259680;1108;114665;-68
2021/01/24 16:44:32;;;;;;;11.95;7.30;;;;;;;5.82;62.13;97212.74;259637;1109;115747;-68
2021/01/24 16:49:35;;;;;;;10.50;6.43;;;;;;;5.80;61.22;97220.75;259649;1106;115191;-68
2021/01/24 16:54:39;;;;;;;9.70;6.43;;;;;;;5.76;61.58;97223.73;259715;1105;114944;-68
2021/01/24 16:59:41;;;;;;;9.60;5.97;;;;;;;5.72;61.15;97219.64;259689;1108;115048;-67
2021/01/24 17:04:44;;;;;;;9.63;5.63;;;;;;;5.63;61.46;97227.23;259607;1108;115549;-69
2021/01/24 17:10:05;;;;;;;12.37;6.33;;;;;;;5.61;61.59;97236.23;259713;1108;115319;-69
2021/01/24 17:15:08;;;;;;;10.40;6.23;;;;;;;5.57;61.83;97246.17;259672;1106;114694;-70
2021/01/24 17:20:12;;;;;;;8.27;5.57;;;;;;;5.57;60.13;97234.75;259688;1109;114551;-68
2021/01/24 17:25:15;;;;;;;9.73;6.07;;;;;;;5.55;60.40;97247.22;259722;1107;114784;-69
2021/01/24 17:30:17;;;;;;;10.63;6.33;;;;;;;5.54;60.43;97240.27;259698;1108;114636;-69
2021/01/24 17:35:20;;;;;;;12.23;6.95;;;;;;;5.53;60.28;97228.00;259704;1108;114944;-67
2021/01/24 17:40:23;;;;;;;10.83;7.30;;;;;;;5.50;59.96;97228.22;259692;1108;115513;-66
2021/01/24 17:45:25;;;;;;;11.10;6.77;;;;;;;5.44;61.24;97230.36;259692;1109;114694;-68
2021/01/24 17:50:27;;;;;;;13.73;8.37;;;;;;;5.40;60.07;97226.25;259689;1108;114720;-66
2021/01/24 17:55:29;;;;;;;14.43;8.67;;;;;;;5.38;59.87;97235.22;259683;1108;114713;-68
2021/01/24 18:00:32;;;;;;;13.58;8.73;;;;;;;5.35;60.95;97223.08;259674;1109;114698;-66
2021/01/24 18:05:34;;;;;;;15.07;9.40;;;;;;;5.36;61.09;97224.76;259634;1109;114632;-66
2021/01/24 18:10:38;;;;;;;17.97;10.20;;;;;;;5.33;61.12;97225.00;259661;1105;115406;-67
2021/01/24 18:15:41;;;;;;;15.63;9.80;;;;;;;5.30;61.12;97238.39;259670;1107;114822;-67
2021/01/24 18:20:43;;;;;;;20.00;11.37;;;;;;;5.30;61.41;97242.80;259691;1105;114735;-67
2021/01/24 18:25:46;;;;;;;21.02;10.82;;;;;;;5.34;61.36;97244.30;259709;1108;114965;-66
2021/01/24 18:30:48;;;;;;;19.30;10.70;;;;;;;5.33;61.56;97254.02;259672;1105;115055;-66
2021/01/24 18:35:50;;;;;;;21.30;12.00;;;;;;;5.35;61.06;97257.37;259566;1108;114869;-66
2021/01/24 18:40:53;;;;;;;16.90;9.80;;;;;;;5.36;60.96;97250.30;259759;1106;114750;-65
2021/01/24 18:45:55;;;;;;;18.07;9.80;;;;;;;5.33;60.94;97259.29;259582;1108;114840;-66
2021/01/24 18:50:58;;;;;;;20.37;10.75;;;;;;;5.29;61.10;97252.52;259705;1105;115396;-65
2021/01/24 18:56:01;;;;;;;18.30;9.97;;;;;;;5.25;59.93;97253.68;259643;1105;115014;-66
2021/01/24 19:01:03;;;;;;;22.03;10.93;;;;;;;5.20;60.20;97247.90;259745;1105;114974;-66
2021/01/24 19:06:07;;;;;;;19.33;11.03;;;;;;;5.17;60.01;97243.67;259709;1108;115316;-66
2021/01/24 19:11:09;;;;;;;21.47;10.93;;;;;;;5.13;60.55;97260.66;259749;1104;115014;-67
2021/01/24 19:16:13;;;;;;;25.00;12.18;;;;;;;5.03;59.30;97258.73;259609;1105;114711;-68
2021/01/24 19:21:20;;;;;;;24.13;12.53;;;;;;;4.96;60.26;97253.91;259689;1105;114951;-67
2021/01/24 19:26:22;;;;;;;24.72;12.80;;;;;;;4.93;59.94;97262.02;259770;1105;114853;-67
2021/01/24 19:31:25;;;;;;;24.17;13.43;;;;;;;4.89;60.04;97263.18;259064;1109;114813;-66
2021/01/24 19:36:31;;;;;;;25.52;13.15;;;;;;;4.83;59.18;97271.49;259709;1108;115413;-66
2021/01/24 19:41:34;;;;;;;24.98;13.78;;;;;;;4.81;60.24;97273.37;259415;1109;115071;-72
2021/01/24 19:46:44;;;;;;;22.53;12.17;;;;;;;4.80;59.49;97273.49;259716;1109;115057;-74
2021/01/24 19:51:47;;;;;;;25.00;12.78;;;;;;;4.82;59.95;97264.51;259746;1105;116083;-66
2021/01/24 19:56:52;;;;;;;23.27;12.90;;;;;;;4.82;58.79;97268.94;259738;1105;115543;-65
2021/01/24 20:01:54;;;;;;;25.17;13.40;;;;;;;4.84;60.23;97267.90;259693;1109;114935;-65
2021/01/24 20:06:57;;;;;;;25.82;12.53;;;;;;;4.86;60.18;97257.27;259706;1108;114722;-65
2021/01/24 20:11:59;;;;;;;28.17;13.87;;;;;;;4.85;59.65;97259.03;259650;1108;115132;-64
2021/01/24 20:17:03;;;;;;;26.10;13.93;;;;;;;4.85;59.26;97259.03;259762;1108;116011;-66
2021/01/24 20:22:07;;;;;;;26.42;13.35;;;;;;;4.83;59.66;97255.68;259718;1105;116027;-64
2021/01/24 20:27:09;;;;;;;26.67;13.93;;;;;;;4.82;60.09;97263.67;259673;1108;115247;-66
2021/01/24 20:32:12;;;;;;;26.37;13.62;;;;;;;4.79;59.55;97264.75;259720;1108;115469;-67
2021/01/24 20:37:14;;;;;;;22.23;11.97;;;;;;;4.78;60.17;97272.73;259700;1108;114938;-65
2021/01/24 20:42:16;;;;;;;21.55;11.70;;;;;;;4.82;60.56;97285.59;259722;1107;115786;-67
2021/01/24 20:47:19;;;;;;;20.93;11.17;;;;;;;4.83;59.74;97287.30;259679;1105;115289;-69
2021/01/24 20:52:22;;;;;;;18.73;11.10;;;;;;;4.86;59.39;97279.20;259701;1106;115454;-71
2021/01/24 20:57:25;;;;;;;18.98;11.05;;;;;;;4.91;59.89;97287.62;259699;1108;115377;-68
2021/01/24 21:02:28;;;;;;;20.93;11.00;;;;;;;4.92;60.29;97273.48;259671;1108;114994;-69
2021/01/24 21:07:30;;;;;;;17.63;10.43;;;;;;;4.88;59.24;97274.64;259683;1109;115038;-71
2021/01/24 21:12:32;;;;;;;24.07;12.87;;;;;;;4.80;59.40;97276.97;259696;1105;114894;-70
2021/01/24 21:17:37;;;;;;;21.52;12.63;;;;;;;4.74;59.22;97272.94;259708;1105;115959;-72
2021/01/24 21:22:39;;;;;;;24.23;12.98;;;;;;;4.66;59.79;97274.41;259734;1109;114932;-68
2021/01/24 21:27:44;;;;;;;22.50;13.68;;;;;;;4.61;59.55;97266.80;259720;1108;114961;-70
2021/01/24 21:32:46;;;;;;;23.57;13.07;;;;;;;4.56;60.82;97262.80;259713;1107;115711;-69
2021/01/24 21:37:49;;;;;;;23.70;12.30;;;;;;;4.49;60.70;97250.03;259597;1106;114900;-70
2021/01/24 21:42:52;;;;;;;25.00;13.40;;;;;;;4.43;60.53;97249.59;259756;1105;114849;-71
2021/01/24 21:47:55;;;;;;;24.18;13.62;;;;;;;4.35;60.42;97257.13;259717;1109;115669;-71
2021/01/24 21:52:57;;;;;;;26.83;12.63;;;;;;;4.30;60.42;97244.28;259626;1106;114868;-71
2021/01/24 21:58:00;;;;;;;26.53;14.03;;;;;;;4.27;60.91;97240.05;259696;1106;115125;-69
2021/01/24 22:03:03;;;;;;;26.83;14.60;;;;;;;4.24;60.71;97242.04;259730;1108;114993;-69
2021/01/24 22:08:05;;;;;;;26.13;14.17;;;;;;;4.21;61.05;97231.70;259710;1105;115049;-69
2021/01/24 22:13:07;;;;;;;26.75;14.33;;;;;;;4.24;61.15;97224.45;259730;1106;114842;-67
2021/01/24 22:18:10;;;;;;;25.33;12.80;;;;;;;4.26;61.27;97227.00;259706;1109;115638;-68
2021/01/24 22:23:12;;;;;;;24.55;12.90;;;;;;;4.35;61.39;97228.17;259736;1105;115241;-68
2021/01/24 22:28:15;;;;;;;19.13;11.33;;;;;;;4.35;61.12;97207.97;259711;1108;115091;-67
2021/01/24 22:33:19;;;;;;;23.27;12.23;;;;;;;4.39;60.41;97214.72;259737;1108;114802;-69
2021/01/24 22:38:21;;;;;;;22.32;12.40;;;;;;;4.40;60.79;97215.55;259698;1108;115091;-66
2021/01/24 22:43:23;;;;;;;21.90;12.47;;;;;;;4.34;60.42;97216.80;259714;1108;115635;-66
2021/01/24 22:48:25;;;;;;;31.60;15.97;;;;;;;4.26;60.71;97233.11;259765;1105;115114;-66
2021/01/24 22:53:28;;;;;;;29.30;15.40;;;;;;;4.18;61.08;97242.47;259752;1109;115707;-66
2021/01/24 22:58:30;;;;;;;29.87;16.37;;;;;;;4.10;61.49;97221.88;259646;1105;114986;-67
2021/01/24 23:03:32;;;;;;;34.67;18.90;;;;;;;4.03;61.11;97226.70;259700;1109;115125;-66